ホノルル の空港の天気 - METARとTAF

ホノルル国際空港 ( PHNL / HNL ) - アメリカ ハワイ州ホノルル
飛行場実況気象(Metar)
観測時間10/20 06:53 HST (10/20 16:53 UTC)
風向・風速不定 2m/s
視程10km以上
天気現象
少しの雲 雲底高度 670m
少しの雲 雲底高度 1100m
全天の4割程度の雲 雲底高度 2130m
全天の4割程度の雲 雲底高度 6100m
気温23.9℃
湿度79%
気圧1014hPa
METARPHNL 201653Z VRB04KT 10SM FEW022 FEW036 SCT070 SCT200 24/20 A2995 RMK AO2 SLP140 T02390200 $
過去の天気等 Google飛行場航空写真 Wunderground天気予報

過去48時間のMETAR

飛行場予報(TAF)
発表時間: 10/20 04:30 HST (10/20 14:30 UTC)
予報対象時間: 20日5時 HST ~ 21日8時 HST
風向・風速北 2m/s
視程10km以上
少しの雲 雲底高度 760m
全天の4割程度の雲 雲底高度 1520m
20日10時 HST から
風向・風速北東 5m/s 瞬間風速 8m/s
視程10km以上
少しの雲 雲底高度 760m
全天の4割程度の雲 雲底高度 1520m
20日19時 HST から
風向・風速北東 4m/s
視程10km以上
少しの雲 雲底高度 760m
全天の4割程度の雲 雲底高度 1520m
PHNL 201430Z 2015/2118 35004KT P6SM FEW025 SCT050
FM202000 05010G15KT P6SM FEW025 SCT050
FM210500 04007KT P6SM FEW025 SCT050